Time;durP1;ratioP1;P1;durP2;ratioP2;P2;SDS_P1;SDS_P2;PMS_P1;PMS_P2;Temp;Humidity;BMP_temperature;BMP_pressure;BME280_temperature;BME280_humidity;BME280_pressure;Samples;Min_cycle;Max_cycle;Signal;HPM_P1;HPM_P2
2024/02/08 00:00:58;;;;;;;4.40;3.17;;;1.50;99.90;1.10;99385.00;;;;4893738;28;120974;-71
2024/02/08 00:03:23;;;;;;;6.27;4.27;;;1.50;99.90;1.10;99388.00;;;;4898116;28;110945;-71
2024/02/08 00:05:49;;;;;;;4.73;3.13;;;1.30;99.90;1.00;99390.00;;;;4895500;28;92110;-71
2024/02/08 00:08:15;;;;;;;4.90;3.27;;;2.00;99.90;0.90;99376.00;;;;4897932;28;106325;-71
2024/02/08 00:10:40;;;;;;;4.50;3.17;;;1.20;99.90;0.80;99394.00;;;;4897550;28;118863;-71
2024/02/08 00:13:06;;;;;;;6.33;3.43;;;1.50;99.90;0.80;99394.00;;;;4909890;28;102124;-71
2024/02/08 00:15:32;;;;;;;4.70;3.60;;;1.10;99.90;0.70;99392.00;;;;4887259;28;93437;-71
2024/02/08 00:17:57;;;;;;;4.47;3.57;;;1.10;99.90;0.70;99388.00;;;;4895949;28;93242;-71
2024/02/08 00:20:23;;;;;;;6.47;4.60;;;1.00;99.90;0.60;99377.00;;;;4894952;28;121223;-71
2024/02/08 00:22:52;;;;;;;8.07;4.43;;;1.00;99.90;0.60;99386.00;;;;4896571;28;93260;-71
2024/02/08 00:25:18;;;;;;;5.73;3.70;;;1.00;99.90;0.50;99389.00;;;;4897698;28;92865;-71
2024/02/08 00:27:46;;;;;;;5.83;3.70;;;0.90;99.90;0.50;99384.00;;;;4894438;28;95802;-71
2024/02/08 00:30:15;;;;;;;5.67;3.67;;;0.80;99.90;0.40;99393.00;;;;4896995;28;93659;-71
2024/02/08 00:32:41;;;;;;;8.27;4.30;;;0.90;99.90;0.40;99382.00;;;;4891930;28;92923;-71
2024/02/08 00:35:08;;;;;;;3.20;2.77;;;0.80;99.90;0.40;99388.00;;;;4899238;28;93175;-71
2024/02/08 00:37:33;;;;;;;5.97;3.37;;;0.70;99.90;0.40;99375.00;;;;4895469;28;115142;-71
2024/02/08 00:39:59;;;;;;;5.73;4.67;;;0.80;99.90;0.30;99370.00;;;;4892153;28;123431;-71
2024/02/08 00:42:25;;;;;;;8.00;3.80;;;0.70;99.90;0.30;99378.00;;;;4894111;28;92820;-71
2024/02/08 00:44:51;;;;;;;7.53;4.03;;;0.70;99.90;0.30;99375.00;;;;4897785;28;107868;-71
2024/02/08 00:47:17;;;;;;;8.57;4.47;;;0.70;99.90;0.30;99371.00;;;;4896102;28;94158;-71
2024/02/08 00:49:42;;;;;;;4.70;3.90;;;0.60;99.90;0.40;99370.00;;;;4893079;28;122069;-71
2024/02/08 00:52:08;;;;;;;6.63;4.00;;;0.70;99.90;0.40;99375.00;;;;4893604;28;109202;-71
2024/02/08 00:54:35;;;;;;;5.47;4.40;;;0.60;99.90;0.40;99380.00;;;;4895476;28;98825;-71
2024/02/08 00:57:07;;;;;;;4.13;2.90;;;0.70;99.90;0.50;99378.00;;;;4893192;28;109530;-71
2024/02/08 00:59:40;;;;;;;7.63;3.80;;;0.80;99.90;0.60;99376.00;;;;4895673;28;93518;-71
2024/02/08 01:02:06;;;;;;;4.13;3.37;;;1.00;99.90;0.70;99373.00;;;;4895566;28;93852;-71
2024/02/08 01:04:33;;;;;;;5.03;3.67;;;1.00;99.90;0.70;99370.00;;;;4898792;28;92853;-72
2024/02/08 01:06:59;;;;;;;4.57;3.23;;;1.00;99.90;0.70;99370.00;;;;4893397;28;93853;-71
2024/02/08 01:09:28;;;;;;;5.90;3.83;;;1.00;99.90;0.70;99364.00;;;;4894245;28;105475;-71
2024/02/08 01:11:54;;;;;;;6.20;3.97;;;1.10;99.90;0.80;99356.00;;;;4892473;28;111500;-72
2024/02/08 01:14:22;;;;;;;7.30;4.97;;;1.10;99.90;0.80;99360.00;;;;4891968;28;94238;-72
2024/02/08 01:16:51;;;;;;;6.50;4.30;;;1.10;99.90;0.80;99355.00;;;;4894918;28;93676;-72
2024/02/08 01:19:25;;;;;;;5.43;4.17;;;1.10;99.90;0.90;99357.00;;;;4896212;28;122098;-72
2024/02/08 01:21:56;;;;;;;7.63;5.27;;;1.20;99.90;0.90;99360.00;;;;4896905;28;92823;-72
2024/02/08 01:24:22;;;;;;;6.93;4.03;;;1.20;99.90;0.90;99368.00;;;;4906381;28;93286;-72
2024/02/08 01:26:49;;;;;;;10.33;5.50;;;1.20;99.90;1.00;99360.00;;;;4895110;28;101200;-72
2024/02/08 01:29:16;;;;;;;6.20;4.50;;;1.30;99.90;1.00;99372.00;;;;4897144;28;105164;-71
2024/02/08 01:31:42;;;;;;;10.30;4.73;;;1.30;99.90;1.00;99351.00;;;;4893620;28;92990;-72
2024/02/08 01:34:08;;;;;;;6.33;4.80;;;1.30;99.90;1.00;99349.00;;;;4891843;28;108625;-71
2024/02/08 01:36:39;;;;;;;3.73;3.40;;;1.30;99.90;1.00;99346.00;;;;4896252;28;105981;-71
2024/02/08 01:39:12;;;;;;;7.27;4.60;;;1.30;99.90;1.00;99341.00;;;;4899445;28;94187;-72
2024/02/08 01:41:38;;;;;;;8.23;4.27;;;1.30;99.90;1.00;99341.00;;;;4897444;28;92828;-72
2024/02/08 01:44:07;;;;;;;7.83;4.73;;;1.30;99.90;1.00;99340.00;;;;4896080;28;98530;-72
2024/02/08 01:46:38;;;;;;;6.67;5.07;;;1.30;99.90;1.00;99330.00;;;;4895025;28;93159;-72
2024/02/08 01:49:16;;;;;;;9.90;3.97;;;1.20;99.90;0.90;99344.00;;;;4894579;28;93481;-72
2024/02/08 01:51:43;;;;;;;9.53;6.07;;;1.20;99.90;0.90;99326.00;;;;4891580;28;94066;-72
2024/02/08 01:54:12;;;;;;;7.83;5.20;;;2.30;99.90;0.90;99326.00;;;;4892539;28;109353;-72
2024/02/08 01:56:44;;;;;;;14.90;8.33;;;1.30;99.90;0.90;99326.00;;;;4892125;28;94335;-72
2024/02/08 01:59:11;;;;;;;8.83;6.33;;;1.30;99.90;0.90;99312.00;;;;4907174;28;93698;-72
2024/02/08 02:01:45;;;;;;;8.83;5.83;;;1.20;99.90;0.90;99324.00;;;;4894531;28;93188;-72
2024/02/08 02:04:13;;;;;;;7.50;4.47;;;1.70;99.90;0.90;99312.00;;;;4891539;28;93208;-72
2024/02/08 02:06:41;;;;;;;6.83;5.30;;;1.30;99.90;0.90;99316.00;;;;4893738;28;94297;-72
2024/02/08 02:09:30;;;;;;;8.80;5.53;;;1.20;99.90;0.90;99316.00;;;;4890350;28;93933;-71
2024/02/08 02:12:19;;;;;;;8.27;4.83;;;1.30;99.90;0.90;99313.00;;;;4905504;28;93132;-71
2024/02/08 02:14:45;;;;;;;8.53;5.10;;;1.30;99.90;0.90;99312.00;;;;4893053;28;92924;-72
2024/02/08 02:17:16;;;;;;;9.67;5.00;;;0.70;99.90;1.00;99296.00;;;;4904116;28;95325;-72
2024/02/08 02:19:42;;;;;;;9.33;5.20;;;1.20;99.90;0.90;99297.00;;;;4892916;28;94830;-72
2024/02/08 02:22:11;;;;;;;7.53;3.93;;;1.50;99.90;0.90;99304.00;;;;4896932;28;92930;-72
2024/02/08 02:24:40;;;;;;;8.83;4.70;;;1.30;99.90;0.90;99305.00;;;;4891999;28;99557;-72
2024/02/08 02:27:08;;;;;;;7.63;5.33;;;1.30;99.90;0.90;99300.00;;;;4905256;28;93255;-72
2024/02/08 02:29:36;;;;;;;10.13;4.80;;;1.20;99.90;0.80;99308.00;;;;4890424;28;93492;-72
2024/02/08 02:32:04;;;;;;;6.40;4.30;;;1.20;99.90;0.80;99317.00;;;;4907624;28;93290;-71
2024/02/08 02:34:31;;;;;;;8.50;5.57;;;1.10;99.90;0.80;99310.00;;;;4892282;28;92332;-71
2024/02/08 02:37:00;;;;;;;8.07;5.20;;;1.10;99.90;0.80;99305.00;;;;4908412;28;122614;-71
2024/02/08 02:39:30;;;;;;;7.83;4.90;;;1.10;99.90;0.80;99294.00;;;;4911967;28;93041;-71
2024/02/08 02:41:59;;;;;;;8.63;5.17;;;1.10;99.90;0.80;99297.00;;;;4910859;28;94304;-71
2024/02/08 02:44:27;;;;;;;8.57;5.20;;;1.90;99.90;0.70;99286.00;;;;4896692;28;93192;-71
2024/02/08 02:46:56;;;;;;;7.73;5.07;;;1.30;99.90;0.70;99293.00;;;;4898251;28;93652;-72
2024/02/08 02:49:23;;;;;;;8.93;5.17;;;1.10;99.90;0.70;99294.00;;;;4895688;28;96888;-71
2024/02/08 02:51:48;;;;;;;6.57;4.47;;;1.00;99.90;0.70;99291.00;;;;4898101;28;92632;-71
2024/02/08 02:54:30;;;;;;;9.93;5.73;;;1.00;99.90;0.70;99287.00;;;;4895578;28;107842;-72
2024/02/08 02:56:56;;;;;;;6.77;4.87;;;1.10;99.90;0.70;99280.00;;;;4894165;28;93166;-71
2024/02/08 02:59:26;;;;;;;6.30;4.57;;;1.10;99.90;0.70;99283.00;;;;4879786;28;95329;-71
2024/02/08 03:01:55;;;;;;;6.07;4.03;;;1.10;99.90;0.70;99289.00;;;;4900253;28;94499;-71
2024/02/08 03:04:22;;;;;;;5.73;4.67;;;1.00;99.90;0.80;99291.00;;;;4892574;28;93166;-71
2024/02/08 03:06:52;;;;;;;8.17;5.13;;;1.10;99.90;0.80;99290.00;;;;4901399;28;103260;-71
2024/02/08 03:09:23;;;;;;;8.63;5.10;;;1.20;99.90;0.80;99286.00;;;;4898946;28;94241;-71
2024/02/08 03:11:50;;;;;;;10.70;4.83;;;1.20;99.90;0.90;99275.00;;;;4899080;28;93044;-71
2024/02/08 03:14:19;;;;;;;3.73;3.33;;;1.20;99.90;0.90;99271.00;;;;4899955;28;93177;-71
2024/02/08 03:16:45;;;;;;;5.43;3.90;;;1.20;99.90;0.90;99269.00;;;;4898294;28;92991;-72
2024/02/08 03:19:11;;;;;;;8.30;5.13;;;1.20;99.90;1.00;99274.00;;;;4897002;28;93789;-71
2024/02/08 03:21:40;;;;;;;4.27;3.50;;;1.20;99.90;1.00;99269.00;;;;4898556;28;106349;-71
2024/02/08 03:24:09;;;;;;;6.10;3.77;;;1.20;99.90;1.00;99272.00;;;;4901335;28;92317;-71
2024/02/08 03:26:44;;;;;;;5.53;4.87;;;1.30;99.90;1.10;99266.00;;;;4897597;28;93402;-71
2024/02/08 03:29:11;;;;;;;5.33;3.77;;;1.30;99.90;1.10;99268.00;;;;4898529;28;94533;-71
2024/02/08 03:31:45;;;;;;;9.33;4.70;;;1.40;99.90;1.10;99269.00;;;;4898443;28;94037;-71
2024/02/08 03:34:19;;;;;;;9.27;5.97;;;1.50;99.90;1.20;99266.00;;;;4896378;28;92990;-72
2024/02/08 03:36:46;;;;;;;18.73;13.03;;;1.50;99.90;1.20;99281.00;;;;4910145;28;93344;-71
2024/02/08 03:39:24;;;;;;;10.70;8.47;;;1.60;99.90;1.20;99270.00;;;;4895241;28;93386;-71
2024/02/08 03:42:07;;;;;;;13.03;7.80;;;1.80;99.90;1.20;99267.00;;;;4899688;28;93035;-71
2024/02/08 03:44:33;;;;;;;14.23;7.97;;;1.60;99.90;1.30;99264.00;;;;4897438;28;93099;-71
2024/02/08 03:47:04;;;;;;;6.80;4.73;;;1.70;99.90;1.30;99270.00;;;;4898310;28;94125;-71
2024/02/08 03:49:37;;;;;;;7.43;4.80;;;1.80;99.90;1.30;99270.00;;;;4901402;28;94187;-71
2024/02/08 03:52:04;;;;;;;6.27;5.03;;;1.60;99.90;1.30;99264.00;;;;4909420;28;94875;-71
2024/02/08 03:54:30;;;;;;;9.50;5.17;;;1.60;99.90;1.30;99260.00;;;;4893040;28;93379;-71
2024/02/08 03:56:59;;;;;;;6.23;5.07;;;1.60;99.90;1.30;99257.00;;;;4895382;28;95037;-71
2024/02/08 03:59:26;;;;;;;8.17;4.23;;;1.50;99.90;1.30;99264.00;;;;4896729;28;94027;-72
2024/02/08 04:02:06;;;;;;;6.50;4.20;;;1.70;99.90;1.30;99257.00;;;;4895447;28;110164;-71
2024/02/08 04:04:49;;;;;;;6.90;4.43;;;1.60;99.90;1.20;99257.00;;;;4909851;28;93360;-72
2024/02/08 04:53:56;;;;;;;8.00;4.20;;;2.40;99.90;1.10;99254.00;;;;4905143;28;93625;-72
2024/02/08 04:56:22;;;;;;;7.87;4.40;;;2.30;99.90;1.20;99262.00;;;;4895158;28;92969;-72
2024/02/08 04:58:48;;;;;;;7.83;4.80;;;1.50;99.90;1.20;99260.00;;;;4896216;28;93292;-72
2024/02/08 05:01:14;;;;;;;9.60;5.40;;;1.40;99.90;1.20;99265.00;;;;4910641;28;93443;-72
2024/02/08 05:03:42;;;;;;;5.83;3.60;;;1.50;99.90;1.20;99267.00;;;;4894676;28;93718;-71
2024/02/08 05:06:15;;;;;;;7.00;3.77;;;1.50;99.90;1.20;99271.00;;;;4899979;28;93045;-72
2024/02/08 05:08:46;;;;;;;6.27;3.90;;;1.50;99.90;1.20;99263.00;;;;4910602;28;92283;-71
2024/02/08 05:11:14;;;;;;;6.03;4.17;;;1.50;99.90;1.20;99256.00;;;;4894285;28;102862;-71
2024/02/08 05:13:43;;;;;;;6.93;4.43;;;1.50;99.90;1.20;99255.00;;;;4894213;28;92913;-72
2024/02/08 05:16:16;;;;;;;8.87;4.13;;;1.40;99.90;1.10;99259.00;;;;4897609;28;94082;-72
2024/02/08 05:18:44;;;;;;;6.20;5.53;;;1.50;99.90;1.10;99264.00;;;;4901413;28;92739;-72
2024/02/08 05:21:14;;;;;;;5.13;3.97;;;1.50;99.90;1.10;99258.00;;;;4892839;28;93160;-72
2024/02/08 05:23:41;;;;;;;7.73;4.23;;;1.50;99.90;1.10;99261.00;;;;4906314;28;93195;-72
2024/02/08 05:26:18;;;;;;;7.00;4.83;;;1.50;99.90;1.10;99252.00;;;;4896429;28;92800;-72
2024/02/08 05:28:48;;;;;;;6.20;4.50;;;1.40;99.90;1.10;99261.00;;;;4871902;28;93142;-73
2024/02/08 05:31:17;;;;;;;5.97;4.80;;;1.50;99.90;1.10;99242.00;;;;4887223;28;106935;-72
2024/02/08 05:33:43;;;;;;;8.10;5.23;;;1.40;99.90;1.10;99233.00;;;;4891982;28;122422;-72
2024/02/08 05:36:11;;;;;;;10.63;6.27;;;1.40;99.90;1.10;99236.00;;;;4890316;28;93088;-72
2024/02/08 05:38:41;;;;;;;9.20;5.73;;;1.50;99.90;1.10;99228.00;;;;4894221;28;93160;-71
2024/02/08 05:41:08;;;;;;;12.37;7.23;;;1.30;99.90;1.10;99234.00;;;;4894718;28;93974;-72
2024/02/08 05:43:44;;;;;;;11.13;6.40;;;1.40;99.90;1.10;99235.00;;;;4890737;28;95005;-72
2024/02/08 05:46:24;;;;;;;11.47;6.67;;;1.40;99.90;1.00;99230.00;;;;4891782;28;93902;-72
2024/02/08 05:48:51;;;;;;;7.67;5.03;;;1.40;99.90;1.00;99219.00;;;;4890740;28;93219;-72
2024/02/08 05:51:22;;;;;;;11.80;7.23;;;1.40;99.90;1.00;99214.00;;;;4903754;28;92933;-72
2024/02/08 05:53:48;;;;;;;9.03;5.30;;;1.30;99.90;1.00;99218.00;;;;4890327;28;93529;-72
2024/02/08 05:56:21;;;;;;;10.40;6.23;;;1.30;99.90;1.00;99215.00;;;;4894741;28;94442;-72
2024/02/08 05:58:51;;;;;;;9.27;4.57;;;1.40;99.90;1.00;99209.00;;;;4904609;28;92247;-72
2024/02/08 06:01:20;;;;;;;9.70;4.80;;;1.20;99.90;0.90;99212.00;;;;4894638;28;94172;-72
2024/02/08 06:03:47;;;;;;;9.63;5.50;;;1.30;99.90;0.90;99205.00;;;;4892378;28;94358;-72
2024/02/08 06:06:17;;;;;;;9.07;5.13;;;1.20;99.90;0.90;99208.00;;;;4891542;28;95710;-72
2024/02/08 06:08:43;;;;;;;12.00;7.60;;;1.20;99.90;0.80;99215.00;;;;4892100;28;93094;-72
2024/02/08 06:11:19;;;;;;;12.43;9.80;;;1.20;99.90;0.80;99209.00;;;;4891664;28;93389;-72
2024/02/08 06:14:06;;;;;;;21.73;13.37;;;1.90;99.90;0.80;99203.00;;;;4896271;28;92767;-72
2024/02/08 06:16:46;;;;;;;32.70;23.97;;;1.10;99.90;0.80;99210.00;;;;4895838;28;92940;-72
2024/02/08 06:19:15;;;;;;;36.10;23.53;;;1.10;99.90;0.80;99216.00;;;;4897472;28;92917;-72
2024/02/08 06:21:41;;;;;;;16.87;10.03;;;1.20;99.90;0.80;99222.00;;;;4898012;28;93631;-72
2024/02/08 06:26:55;;;;;;;9.57;6.03;;;1.20;99.90;0.90;99232.00;;;;4901304;28;93158;-72
2024/02/08 06:29:38;;;;;;;7.83;5.50;;;1.20;99.90;0.90;99240.00;;;;4896006;28;93318;-73
2024/02/08 06:32:23;;;;;;;9.10;6.23;;;1.20;99.90;0.90;99215.00;;;;4896297;28;94656;-72
2024/02/08 06:35:25;;;;;;;15.47;9.93;;;1.30;99.90;0.90;99210.00;;;;4894071;28;95544;-73
2024/02/08 06:38:03;;;;;;;11.73;7.97;;;1.10;99.90;0.90;99218.00;;;;4911947;28;92882;-72
2024/02/08 07:37:25;;;;;;;8.50;6.23;;;1.30;99.90;1.00;99250.00;;;;4888697;28;93256;-73
2024/02/08 07:39:54;;;;;;;13.13;6.17;;;1.30;99.90;1.00;99250.00;;;;4898729;28;94018;-73
2024/02/08 07:42:29;;;;;;;10.47;6.50;;;2.30;99.90;1.10;99230.00;;;;4910731;28;92973;-72
2024/02/08 07:44:57;;;;;;;11.73;6.50;;;1.40;99.90;1.10;99230.00;;;;4898859;28;91984;-72
2024/02/08 07:47:25;;;;;;;14.13;7.43;;;1.30;99.90;1.10;99218.00;;;;4895823;28;94138;-72
2024/02/08 07:49:57;;;;;;;10.57;6.80;;;1.30;99.90;1.20;99223.00;;;;4894467;28;94179;-72
2024/02/08 07:52:28;;;;;;;15.03;7.47;;;1.50;99.90;1.40;99235.00;;;;4894800;28;93767;-72
2024/02/08 07:57:59;;;;;;;12.00;6.57;;;3.00;99.90;1.70;99253.00;;;;4898743;28;92920;-72
2024/02/08 08:03:15;;;;;;;13.57;6.50;;;2.00;99.90;1.90;99255.00;;;;4897225;28;92885;-72
2024/02/08 08:05:44;;;;;;;8.37;5.23;;;2.10;99.90;1.90;99249.00;;;;4898045;28;92900;-72
2024/02/08 08:08:26;;;;;;;7.27;5.47;;;2.20;99.90;2.00;99269.00;;;;4894295;28;94293;-72
2024/02/08 08:10:56;;;;;;;6.90;4.47;;;2.20;99.90;2.00;99248.00;;;;4901506;28;95129;-72
2024/02/08 08:19:09;;;;;;;8.77;5.33;;;2.40;99.90;2.20;99237.00;;;;4911154;28;94382;-72
2024/02/08 08:22:18;;;;;;;5.27;4.33;;;2.50;99.90;2.20;99244.00;;;;4893948;28;93236;-72
2024/02/08 08:24:42;;;;;;;5.50;4.43;;;2.50;99.90;2.30;99239.00;;;;4900868;28;93177;-71
2024/02/08 08:27:26;;;;;;;7.30;3.97;;;2.50;99.90;2.30;99236.00;;;;4898023;28;92977;-71
2024/02/08 08:29:58;;;;;;;6.40;4.43;;;2.50;99.90;2.30;99219.00;;;;4895688;28;93550;-72
2024/02/08 08:40:38;;;;;;;7.90;4.73;;;3.30;99.90;2.50;99214.00;;;;4899451;28;93135;-71
2024/02/08 08:43:19;;;;;;;5.70;4.80;;;2.60;99.90;2.50;99223.00;;;;4902107;28;92999;-72
2024/02/08 08:45:50;;;;;;;7.40;5.67;;;2.80;99.90;2.60;99222.00;;;;4898413;28;93971;-72
2024/02/08 08:48:21;;;;;;;7.10;3.90;;;2.80;99.90;2.60;99212.00;;;;4892361;28;99044;-72
2024/02/08 08:50:55;;;;;;;5.57;3.80;;;3.10;99.90;2.70;99212.00;;;;4895287;28;93960;-72
2024/02/08 08:53:41;;;;;;;3.87;3.47;;;2.90;99.90;2.70;99215.00;;;;4895817;28;94049;-72
2024/02/08 08:56:10;;;;;;;6.93;4.77;;;2.90;99.90;2.80;99203.00;;;;4895748;28;93190;-72
2024/02/08 08:58:40;;;;;;;7.37;4.73;;;3.00;99.90;2.90;99201.00;;;;4894679;28;93090;-72
2024/02/08 09:01:18;;;;;;;8.27;4.80;;;3.70;99.90;3.00;99204.00;;;;4908499;28;93062;-72
2024/02/08 09:04:25;;;;;;;6.17;4.67;;;3.20;99.90;3.00;99214.00;;;;4897876;28;93509;-72
2024/02/08 09:06:54;;;;;;;5.33;3.90;;;3.20;99.90;3.10;99220.00;;;;4896340;28;93029;-72
2024/02/08 09:09:54;;;;;;;9.87;4.20;;;3.30;99.90;3.20;99221.00;;;;4895598;28;92973;-72
2024/02/08 09:12:15;;;;;;;4.67;3.63;;;3.40;99.90;3.20;99234.00;;;;4895453;28;94153;-71
2024/02/08 09:14:53;;;;;;;9.27;5.20;;;3.50;99.90;3.40;99225.00;;;;4892972;28;106563;-71
2024/02/08 09:17:25;;;;;;;5.37;3.97;;;3.50;99.90;3.50;99236.00;;;;4912217;28;93005;-71
2024/02/08 09:19:51;;;;;;;6.00;3.97;;;3.60;99.90;3.60;99234.00;;;;4895788;28;92976;-71
2024/02/08 09:22:17;;;;;;;4.73;3.67;;;4.50;99.90;3.70;99227.00;;;;4895076;28;93236;-72
2024/02/08 09:24:44;;;;;;;7.23;3.77;;;3.70;99.90;3.80;99227.00;;;;4899912;28;92929;-71
2024/02/08 09:27:16;;;;;;;5.10;3.40;;;4.50;99.90;3.90;99222.00;;;;4914932;28;93026;-71
2024/02/08 09:29:43;;;;;;;4.43;2.87;;;4.00;99.90;4.10;99226.00;;;;4897232;28;92168;-71
2024/02/08 09:32:43;;;;;;;5.87;3.43;;;4.20;99.90;4.20;99227.00;;;;4896885;28;94289;-71
2024/02/08 09:35:11;;;;;;;4.37;3.00;;;4.30;99.90;4.30;99216.00;;;;4891754;28;92900;-71
2024/02/08 09:37:47;;;;;;;8.03;3.93;;;4.40;99.90;4.30;99228.00;;;;4914846;28;94022;-70
2024/02/08 09:40:51;;;;;;;7.13;3.37;;;4.50;99.90;4.30;99214.00;;;;4900151;28;93168;-70
2024/02/08 09:43:19;;;;;;;6.33;4.03;;;4.50;99.90;4.30;99202.00;;;;4901396;28;93589;-69
2024/02/08 09:45:58;;;;;;;5.00;3.00;;;4.50;99.90;4.30;99198.00;;;;4897708;28;93354;-69
2024/02/08 09:48:25;;;;;;;3.33;3.03;;;4.50;99.90;4.40;99202.00;;;;4895999;28;92914;-69
2024/02/08 09:50:59;;;;;;;5.53;3.83;;;4.60;99.90;4.40;99191.00;;;;4893498;28;92837;-68
2024/02/08 09:53:27;;;;;;;4.00;3.20;;;5.50;99.90;4.40;99195.00;;;;4892997;28;94066;-68
2024/02/08 09:55:58;;;;;;;3.87;3.37;;;4.60;99.90;4.40;99200.00;;;;4911086;28;92822;-68
2024/02/08 09:58:39;;;;;;;4.47;3.07;;;4.60;99.90;4.40;99213.00;;;;4897421;28;92806;-68
2024/02/08 10:01:22;;;;;;;6.60;3.33;;;4.60;99.90;4.50;99228.00;;;;4888713;28;92957;-68
2024/02/08 10:03:49;;;;;;;5.50;3.20;;;4.70;99.90;4.50;99233.00;;;;4896814;28;94470;-68
2024/02/08 10:06:59;;;;;;;6.27;3.70;;;4.80;99.90;4.60;99223.00;;;;4897305;28;93905;-68
2024/02/08 10:09:34;;;;;;;4.83;3.23;;;4.70;99.90;4.60;99215.00;;;;4893348;28;93195;-68
2024/02/08 10:11:58;;;;;;;6.03;3.50;;;4.80;99.90;4.70;99218.00;;;;4897582;28;93347;-68
2024/02/08 10:14:25;;;;;;;6.37;3.07;;;4.80;99.90;4.80;99209.00;;;;4900041;28;92662;-69
2024/02/08 10:17:00;;;;;;;7.07;3.30;;;4.90;99.90;4.80;99207.00;;;;4885828;28;93105;-68
2024/02/08 10:22:02;;;;;;;6.97;4.10;;;5.10;99.90;5.10;99206.00;;;;4892091;28;101135;-68
2024/02/08 10:26:17;;;;;;;4.97;3.47;;;5.10;99.90;5.20;99208.00;;;;4892594;28;94616;-69
2024/02/08 10:27:22;;;;;;;4.70;2.97;;;4.90;99.90;5.30;99205.00;;;;4894441;28;92764;-68
2024/02/08 10:29:58;;;;;;;10.33;4.60;;;5.40;99.90;5.40;99209.00;;;;4891920;28;94017;-68
2024/02/08 10:32:27;;;;;;;5.30;3.13;;;5.50;99.90;5.50;99204.00;;;;4896570;28;93055;-68
2024/02/08 10:35:14;;;;;;;5.67;3.53;;;5.60;99.90;5.60;99191.00;;;;4894561;28;93888;-68
2024/02/08 10:38:07;;;;;;;4.67;3.87;;;5.70;99.90;5.80;99184.00;;;;4892571;28;93037;-68
2024/02/08 10:40:34;;;;;;;8.57;4.30;;;6.10;99.90;5.90;99181.00;;;;4895786;28;92927;-68
2024/02/08 10:43:16;;;;;;;4.53;3.63;;;6.00;99.90;5.90;99170.00;;;;4897533;28;92994;-69
2024/02/08 10:45:53;;;;;;;5.27;3.30;;;6.70;99.90;5.90;99161.00;;;;4893780;28;93411;-69
2024/02/08 10:48:21;;;;;;;6.00;3.73;;;6.00;99.90;6.10;99156.00;;;;4891846;28;92807;-69
2024/02/08 10:50:49;;;;;;;5.30;3.80;;;6.70;99.90;6.10;99149.00;;;;4894016;28;93033;-69
2024/02/08 10:53:18;;;;;;;5.63;3.60;;;6.20;99.90;6.20;99150.00;;;;4895672;28;93319;-69
2024/02/08 10:55:59;;;;;;;6.70;4.67;;;6.90;99.90;6.30;99148.00;;;;4890635;28;94873;-69
2024/02/08 10:58:28;;;;;;;4.47;3.63;;;6.40;99.90;6.50;99151.00;;;;4897876;28;93692;-69
2024/02/08 11:01:13;;;;;;;5.17;3.53;;;6.50;99.90;6.60;99160.00;;;;4896949;28;92942;-69
2024/02/08 11:03:52;;;;;;;12.03;6.83;;;6.70;99.90;6.70;99156.00;;;;4899597;28;92953;-69
2024/02/08 11:06:32;;;;;;;8.30;4.17;;;7.00;99.90;6.80;99144.00;;;;4914009;28;94775;-70
2024/02/08 11:09:14;;;;;;;8.40;4.03;;;6.80;99.90;6.70;99145.00;;;;4897006;28;92889;-70
2024/02/08 11:11:46;;;;;;;5.53;3.87;;;6.80;99.90;6.70;99148.00;;;;4898868;28;93209;-69
2024/02/08 11:14:18;;;;;;;8.23;4.20;;;7.00;99.90;6.70;99136.00;;;;4896194;28;92518;-70
2024/02/08 11:16:47;;;;;;;5.63;3.00;;;6.70;99.90;6.80;99136.00;;;;4894865;28;94677;-70
2024/02/08 11:19:17;;;;;;;4.30;3.10;;;7.40;99.90;6.80;99133.00;;;;4909276;28;93869;-70
2024/02/08 11:21:43;;;;;;;6.20;4.43;;;6.90;99.90;6.80;99137.00;;;;4896884;28;93636;-70
2024/02/08 11:24:27;;;;;;;7.00;4.60;;;6.90;99.90;6.90;99131.00;;;;4898300;28;92983;-69
2024/02/08 11:26:57;;;;;;;6.97;4.47;;;7.70;99.90;6.80;99138.00;;;;4899606;28;93348;-70
2024/02/08 11:29:26;;;;;;;7.80;4.53;;;6.90;99.90;6.80;99139.00;;;;4896038;28;93664;-70
2024/02/08 11:31:55;;;;;;;5.00;3.30;;;6.90;99.90;6.70;99131.00;;;;4901656;28;92993;-70
2024/02/08 11:34:33;;;;;;;6.97;3.77;;;6.80;99.90;6.70;99127.00;;;;4899061;28;93022;-70
2024/02/08 11:37:13;;;;;;;6.93;4.10;;;6.80;99.90;6.60;99132.00;;;;4899318;28;93127;-70
2024/02/08 11:39:46;;;;;;;6.43;3.93;;;6.70;99.90;6.60;99122.00;;;;4909020;28;92179;-69
2024/02/08 11:42:17;;;;;;;10.53;4.60;;;6.70;99.90;6.70;99126.00;;;;4896642;28;93023;-70
2024/02/08 11:44:45;;;;;;;6.07;4.60;;;6.80;99.90;6.70;99111.00;;;;4907888;28;93245;-70
2024/02/08 11:47:18;;;;;;;5.13;4.17;;;6.80;99.90;6.60;99118.00;;;;4890427;28;95444;-69
2024/02/08 11:50:19;;;;;;;5.20;4.17;;;7.00;99.90;6.60;99106.00;;;;4896687;28;94581;-70
2024/02/08 11:53:04;;;;;;;7.20;4.43;;;7.40;99.90;6.70;99111.00;;;;4900130;28;92875;-70
2024/02/08 11:55:32;;;;;;;6.17;4.40;;;6.80;99.90;6.70;99113.00;;;;4898014;28;92967;-70
2024/02/08 11:58:03;;;;;;;6.73;4.33;;;6.80;99.90;6.80;99116.00;;;;4897308;28;92992;-70
2024/02/08 12:00:30;;;;;;;5.70;4.47;;;6.80;99.90;6.80;99108.00;;;;4898404;28;94149;-70
2024/02/08 12:02:58;;;;;;;4.63;3.73;;;7.30;99.90;6.90;99105.00;;;;4909673;28;92849;-70
2024/02/08 12:05:33;;;;;;;6.80;5.30;;;7.50;99.90;7.00;99111.00;;;;4896913;28;92232;-70
2024/02/08 12:08:08;;;;;;;5.83;4.27;;;7.40;99.90;7.00;99104.00;;;;4898850;28;93420;-71
2024/02/08 12:10:35;;;;;;;7.60;4.73;;;7.90;99.90;7.00;99086.00;;;;4888875;28;97391;-70
2024/02/08 12:13:01;;;;;;;7.87;5.23;;;7.10;99.90;7.00;99097.00;;;;4898426;28;93926;-70
2024/02/08 12:15:28;;;;;;;6.80;4.43;;;7.00;99.90;6.90;99087.00;;;;4897581;28;101610;-70
2024/02/08 12:18:08;;;;;;;8.23;5.20;;;7.10;99.90;6.80;99083.00;;;;4892739;28;121645;-70
2024/02/08 12:20:36;;;;;;;6.90;4.27;;;7.00;99.90;6.70;99068.00;;;;4896753;28;93368;-70
2024/02/08 12:23:02;;;;;;;11.27;5.53;;;7.20;99.90;6.60;99067.00;;;;4911618;28;92906;-69
2024/02/08 12:25:30;;;;;;;5.83;4.37;;;6.80;99.90;6.60;99072.00;;;;4896962;28;96747;-70
2024/02/08 12:28:04;;;;;;;9.47;4.97;;;6.90;99.90;6.70;99062.00;;;;4911174;28;102527;-70
2024/02/08 12:30:36;;;;;;;7.80;5.27;;;6.80;99.90;6.80;99056.00;;;;4896017;28;92270;-70
2024/02/08 12:33:09;;;;;;;7.33;4.87;;;6.90;99.90;6.90;99056.00;;;;4909599;28;92956;-69
2024/02/08 12:35:40;;;;;;;7.47;4.57;;;7.00;99.90;6.90;99061.00;;;;4900323;28;93182;-69
2024/02/08 12:38:07;;;;;;;8.50;6.27;;;7.00;99.90;6.90;99061.00;;;;4898228;28;94260;-69
2024/02/08 12:40:33;;;;;;;10.27;5.80;;;7.00;99.90;7.00;99052.00;;;;4899833;28;94558;-70
2024/02/08 12:43:07;;;;;;;9.30;5.60;;;7.30;99.90;6.90;99048.00;;;;4891936;28;110381;-69
2024/02/08 12:45:34;;;;;;;6.77;4.57;;;7.00;99.90;6.90;99055.00;;;;4907438;28;93466;-69
2024/02/08 12:48:04;;;;;;;8.67;4.47;;;7.10;99.90;6.90;99029.00;;;;4894373;28;99891;-69
2024/02/08 12:50:34;;;;;;;4.23;3.80;;;7.30;99.90;7.00;99017.00;;;;4890593;28;93077;-69
2024/02/08 12:53:00;;;;;;;6.83;4.90;;;7.10;99.90;7.10;99021.00;;;;4898058;28;92805;-69
2024/02/08 12:55:30;;;;;;;4.53;2.97;;;7.80;99.90;7.10;99011.00;;;;4898540;28;92268;-69
2024/02/08 12:58:02;;;;;;;4.23;3.20;;;7.30;99.90;7.10;99008.00;;;;4900330;28;93764;-69
2024/02/08 13:00:33;;;;;;;4.43;3.50;;;7.10;99.90;7.10;98985.00;;;;4894953;28;93460;-69
2024/02/08 13:03:05;;;;;;;3.70;3.30;;;7.20;99.90;7.10;98989.00;;;;4898732;28;93875;-70
2024/02/08 13:05:35;;;;;;;4.63;2.70;;;7.30;99.90;7.00;98998.00;;;;4915258;28;92729;-69
2024/02/08 13:08:01;;;;;;;5.13;2.93;;;7.30;99.90;7.00;98992.00;;;;4897485;28;93348;-69
2024/02/08 13:10:31;;;;;;;3.47;3.17;;;7.00;99.90;7.00;98999.00;;;;4894953;28;123536;-69
2024/02/08 13:13:04;;;;;;;4.97;3.47;;;7.10;99.90;7.00;98991.00;;;;4896169;28;92888;-69
2024/02/08 13:15:33;;;;;;;5.13;2.70;;;7.20;99.90;7.10;98988.00;;;;4899020;28;92783;-69
2024/02/08 13:18:00;;;;;;;6.03;2.63;;;7.20;99.90;6.90;99000.00;;;;4896902;28;93734;-69
2024/02/08 13:20:26;;;;;;;3.87;2.63;;;6.80;99.90;6.90;99003.00;;;;4893563;28;92652;-69
2024/02/08 13:22:52;;;;;;;4.57;3.00;;;7.00;99.90;6.80;99004.00;;;;4899512;28;92787;-69
2024/02/08 13:25:18;;;;;;;6.83;3.80;;;6.90;99.90;6.70;98996.00;;;;4893549;28;92869;-69
2024/02/08 13:27:45;;;;;;;4.57;3.53;;;7.00;99.90;6.70;98998.00;;;;4894184;28;94140;-69
2024/02/08 13:30:17;;;;;;;3.77;2.77;;;6.80;99.90;6.60;98998.00;;;;4895795;28;122513;-69
2024/02/08 13:32:51;;;;;;;2.50;2.10;;;6.80;99.90;6.50;98995.00;;;;4895435;28;92970;-71
2024/02/08 13:35:18;;;;;;;3.83;3.07;;;7.30;99.90;6.40;98988.00;;;;4897494;28;92911;-72